createdAt,value
2019-01-14T00:03:20.168Z,100426.56
2019-01-14T00:08:27.262Z,100443.39
2019-01-14T00:13:36.812Z,100439.16
2019-01-14T00:18:44.832Z,100448.34
2019-01-14T00:23:50.608Z,100469.38
2019-01-14T00:28:59.296Z,100476.50
2019-01-14T00:34:13.405Z,100473.70
2019-01-14T00:39:22.906Z,100481.61
2019-01-14T00:44:32.378Z,100497.36
2019-01-14T00:49:40.748Z,100510.39
2019-01-14T00:54:48.077Z,100496.75
2019-01-14T00:59:55.112Z,100509.78
2019-01-14T01:05:02.488Z,100515.91
2019-01-14T01:10:09.219Z,100521.50
2019-01-14T01:15:19.337Z,100540.73
2019-01-14T01:20:28.069Z,100543.98
2019-01-14T01:25:33.749Z,100547.19
2019-01-14T01:30:42.063Z,100558.71
2019-01-14T01:35:52.911Z,100556.56
2019-01-14T01:41:02.288Z,100572.75
2019-01-14T01:46:09.102Z,100588.95
2019-01-14T01:51:18.581Z,100614.38
2019-01-14T01:56:26.479Z,100611.45
2019-01-14T02:01:36.826Z,100618.60
2019-01-14T02:06:42.078Z,100621.28
2019-01-14T02:12:00.223Z,100628.33
2019-01-14T02:17:08.544Z,100628.89
2019-01-14T02:22:15.691Z,100644.63
2019-01-14T02:27:25.348Z,100645.34
2019-01-14T02:32:35.458Z,100661.72
2019-01-14T02:37:42.959Z,100667.60
2019-01-14T02:42:53.597Z,100659.28
2019-01-14T02:48:04.776Z,100676.09
2019-01-14T02:53:13.450Z,100686.87
2019-01-14T02:58:23.537Z,100692.47
2019-01-14T03:03:29.741Z,100693.59
2019-01-14T03:08:37.617Z,100693.56
2019-01-14T03:13:46.855Z,100709.69
2019-01-14T03:18:56.448Z,100710.11
2019-01-14T03:24:02.448Z,100710.67
2019-01-14T03:29:11.271Z,100716.59
2019-01-14T03:34:22.899Z,100727.83
2019-01-14T03:39:31.055Z,100730.63
2019-01-14T03:44:37.498Z,100741.41
2019-01-14T03:49:44.603Z,100744.70
2019-01-14T03:54:51.043Z,100742.35
2019-01-14T03:59:58.436Z,100738.37
2019-01-14T04:05:26.860Z,100744.99
2019-01-14T04:10:35.561Z,100748.87
2019-01-14T04:15:44.587Z,100757.73
2019-01-14T04:20:55.358Z,100767.93
2019-01-14T04:26:04.921Z,100768.67
2019-01-14T04:31:14.022Z,100776.17
2019-01-14T04:36:21.867Z,100767.41
2019-01-14T04:41:31.397Z,100770.57
2019-01-14T04:46:43.047Z,100779.55
2019-01-14T04:51:51.902Z,100785.16
2019-01-14T04:57:01.484Z,100796.98
2019-01-14T05:02:09.834Z,100792.58
2019-01-14T05:07:20.779Z,100795.02
2019-01-14T05:13:41.988Z,100798.67
2019-01-14T05:18:51.488Z,100819.03
2019-01-14T05:24:01.065Z,100828.73
2019-01-14T05:29:09.950Z,100841.81
2019-01-14T05:34:20.397Z,100848.67
2019-01-14T05:39:27.710Z,100859.36
2019-01-14T05:44:34.733Z,100858.78
2019-01-14T05:49:44.387Z,100870.09
2019-01-14T05:54:53.090Z,100873.94
2019-01-14T06:00:00.277Z,100886.16
2019-01-14T06:05:07.167Z,100882.42
2019-01-14T06:10:18.462Z,100893.45
2019-01-14T06:15:29.092Z,100901.98
2019-01-14T06:20:41.313Z,100903.61
2019-01-14T06:25:50.481Z,100917.77
2019-01-14T06:30:58.630Z,100932.14
2019-01-14T06:36:06.648Z,100955.46
2019-01-14T06:41:16.462Z,100964.20
2019-01-14T06:46:24.929Z,100984.65
2019-01-14T06:51:32.863Z,101002.02
2019-01-14T06:56:41.185Z,101003.22
2019-01-14T07:01:50.215Z,101022.63
2019-01-14T07:06:57.542Z,101025.81
2019-01-14T07:12:07.271Z,101023.20
2019-01-14T07:17:15.542Z,101043.02
2019-01-14T07:22:26.722Z,101053.84
2019-01-14T07:27:33.380Z,101064.36
2019-01-14T07:32:44.775Z,101081.67
2019-01-14T07:37:51.398Z,101098.17
2019-01-14T07:42:59.980Z,101113.22
2019-01-14T07:48:09.890Z,101129.90
2019-01-14T07:53:20.385Z,101134.95
2019-01-14T07:58:28.137Z,101133.02
2019-01-14T08:03:36.797Z,101154.72
2019-01-14T08:08:44.762Z,101161.53
2019-01-14T08:13:54.343Z,101165.89
2019-01-14T08:19:02.656Z,101186.94
2019-01-14T08:24:10.881Z,101196.05
2019-01-14T08:29:19.227Z,101206.51
2019-01-14T08:34:27.432Z,101216.09
2019-01-14T08:39:36.998Z,101231.39
2019-01-14T08:44:45.500Z,101234.54
2019-01-14T08:49:55.504Z,101246.73
2019-01-14T08:55:04.260Z,101250.66
2019-01-14T09:00:16.493Z,101265.67
2019-01-14T09:05:22.973Z,101264.25
2019-01-14T09:10:33.922Z,101270.38
2019-01-14T09:15:41.312Z,101285.00
2019-01-14T09:20:53.863Z,101283.93
2019-01-14T09:26:10.599Z,101278.75
2019-01-14T09:31:22.307Z,101288.16
2019-01-14T09:36:34.004Z,101308.95
2019-01-14T09:41:51.769Z,101315.00
2019-01-14T09:47:05.380Z,101319.72
2019-01-14T09:52:17.990Z,101326.90
2019-01-14T09:57:31.494Z,101317.97
2019-01-14T10:02:40.471Z,101327.19
2019-01-14T10:07:45.851Z,101332.23
2019-01-14T10:12:54.817Z,101329.42
2019-01-14T10:18:10.197Z,101328.22
2019-01-14T10:23:22.791Z,101342.28
2019-01-14T10:28:31.203Z,101334.31
2019-01-14T10:33:40.995Z,101332.85
2019-01-14T10:38:51.086Z,101343.69
2019-01-14T10:44:00.924Z,101337.63
2019-01-14T10:49:17.164Z,101335.89
2019-01-14T10:54:32.803Z,101351.70
2019-01-14T10:59:44.354Z,101359.03
2019-01-14T11:05:00.035Z,101349.55
2019-01-14T11:10:13.812Z,101360.59
2019-01-14T11:15:23.189Z,101351.86
2019-01-14T11:20:38.660Z,101355.59
2019-01-14T11:25:47.705Z,101355.59
2019-01-14T11:30:57.958Z,101383.87
2019-01-14T11:36:07.809Z,101405.66
2019-01-14T11:41:18.960Z,101467.75
2019-01-14T11:46:27.803Z,101418.72
2019-01-14T11:51:43.537Z,101424.34
2019-01-14T11:56:52.300Z,101443.91
2019-01-14T12:02:06.190Z,101469.83
2019-01-14T12:07:18.813Z,101451.99
2019-01-14T12:12:29.573Z,101447.17
2019-01-14T12:17:40.307Z,101461.30
2019-01-14T12:22:50.209Z,101460.39
2019-01-14T12:28:01.936Z,101443.83
2019-01-14T12:33:16.303Z,101448.69
2019-01-14T12:38:27.251Z,101447.68
2019-01-14T12:43:39.140Z,101452.80
2019-01-14T12:48:51.927Z,101458.96
2019-01-14T12:54:03.761Z,101458.67
2019-01-14T12:59:15.436Z,101458.53
2019-01-14T13:04:28.140Z,101474.05
2019-01-14T13:09:42.008Z,101479.22
2019-01-14T13:14:53.367Z,101487.17
2019-01-14T13:20:09.133Z,101487.41
2019-01-14T13:25:20.641Z,101490.41
2019-01-14T13:30:36.388Z,101487.92
2019-01-14T13:35:47.133Z,101480.34
2019-01-14T13:41:00.003Z,101485.89
2019-01-14T13:46:09.736Z,101498.53
2019-01-14T13:51:17.532Z,101510.66
2019-01-14T13:56:26.825Z,101524.72
2019-01-14T14:01:35.434Z,101540.52
2019-01-14T14:06:48.842Z,101544.05
2019-01-14T14:12:00.867Z,101563.67
2019-01-14T14:17:09.156Z,101554.94
2019-01-14T14:22:15.652Z,101569.47
2019-01-14T14:27:32.135Z,101570.07
2019-01-14T14:32:50.897Z,101582.11
2019-01-14T14:38:02.595Z,101594.52
2019-01-14T14:43:17.761Z,101595.62
2019-01-14T14:48:32.611Z,101601.28
2019-01-14T14:53:43.493Z,101612.22
2019-01-14T14:58:51.601Z,101625.26
2019-01-14T15:04:01.452Z,101624.23
2019-01-14T15:09:15.049Z,101647.42
2019-01-14T15:14:27.106Z,101652.17
2019-01-14T15:19:37.797Z,101657.91
2019-01-14T15:24:48.752Z,101658.62
2019-01-14T15:29:59.805Z,101654.94
2019-01-14T15:35:09.550Z,101666.80
2019-01-14T15:40:21.474Z,101669.90
2019-01-14T15:45:30.502Z,101668.21
2019-01-14T15:50:42.371Z,101685.28
2019-01-14T15:55:49.741Z,101685.88
2019-01-14T16:01:03.403Z,101692.86
2019-01-14T16:06:10.426Z,101697.67
2019-01-14T16:11:17.659Z,101702.81
2019-01-14T16:16:27.529Z,101711.31
2019-01-14T16:21:42.880Z,101720.59
2019-01-14T16:26:53.603Z,101721.73
2019-01-14T16:32:04.716Z,101726.68
2019-01-14T16:37:13.698Z,101733.42
2019-01-14T16:42:27.240Z,101732.69
2019-01-14T16:47:38.877Z,101733.40
2019-01-14T16:52:58.722Z,101737.00
2019-01-14T16:58:09.735Z,101737.90
2019-01-14T17:03:29.267Z,101743.14
2019-01-14T17:08:40.870Z,101740.09
2019-01-14T17:13:47.274Z,101740.62
2019-01-14T17:18:55.442Z,101754.50
2019-01-14T17:24:04.788Z,101761.41
2019-01-14T17:29:14.316Z,101779.70
2019-01-14T17:34:26.896Z,101783.22
2019-01-14T17:39:42.257Z,101788.52
2019-01-14T17:44:56.626Z,101797.67
2019-01-14T17:50:06.655Z,101805.45
2019-01-14T17:55:14.544Z,101812.73
2019-01-14T18:00:29.351Z,101818.73
2019-01-14T18:05:42.258Z,101829.17
2019-01-14T18:10:53.256Z,101839.80
2019-01-14T18:16:04.291Z,101839.80
2019-01-14T18:21:14.225Z,101844.17
2019-01-14T18:26:26.346Z,101838.15
2019-01-14T18:31:39.883Z,101853.72
2019-01-14T18:36:48.485Z,101856.72
2019-01-14T18:41:56.461Z,101872.27
2019-01-14T18:47:04.548Z,101881.31
2019-01-14T18:52:12.122Z,101883.09
2019-01-14T18:57:23.682Z,101881.36
2019-01-14T19:02:37.225Z,101887.42
2019-01-14T19:07:50.315Z,101890.94
2019-01-14T19:12:57.518Z,101887.96
2019-01-14T19:18:07.431Z,101887.55
2019-01-14T19:23:17.699Z,101887.12
2019-01-14T19:28:29.492Z,101884.50
2019-01-14T19:33:40.312Z,101887.08
2019-01-14T19:38:53.554Z,101892.25
2019-01-14T19:44:04.771Z,101894.34
2019-01-14T19:49:19.785Z,101894.33
2019-01-14T19:54:31.530Z,101899.00
2019-01-14T19:59:41.473Z,101906.21
2019-01-14T20:04:52.432Z,101910.48
2019-01-14T20:10:01.664Z,101925.27
2019-01-14T20:15:12.371Z,101929.20
2019-01-14T20:20:27.025Z,101930.08
2019-01-14T20:25:36.382Z,101934.94
2019-01-14T20:30:48.041Z,101936.77
2019-01-14T20:36:00.713Z,101943.74
2019-01-14T20:41:17.575Z,101942.87
2019-01-14T20:46:26.393Z,101945.03
2019-01-14T20:51:37.476Z,101933.33
2019-01-14T20:56:50.026Z,101941.92
2019-01-14T21:02:04.461Z,101952.23
2019-01-14T21:07:16.203Z,101946.09
2019-01-14T21:12:33.411Z,101946.03
2019-01-14T21:17:50.540Z,101939.49
2019-01-14T21:23:01.281Z,101945.08
2019-01-14T21:28:09.373Z,101948.00
2019-01-14T21:33:17.707Z,101954.44
2019-01-14T21:38:32.612Z,101958.63
2019-01-14T21:43:44.390Z,101959.47
2019-01-14T21:48:57.926Z,101952.06
2019-01-14T21:54:13.609Z,101950.77
2019-01-14T21:59:23.404Z,101944.66
2019-01-14T22:04:36.899Z,101954.88
2019-01-14T22:09:44.964Z,101953.08
2019-01-14T22:14:55.376Z,101958.21
2019-01-14T22:20:07.557Z,101965.09
2019-01-14T22:25:15.309Z,101962.52
2019-01-14T22:30:32.167Z,101965.11
2019-01-14T22:35:44.111Z,101966.78
2019-01-14T22:40:54.217Z,101967.55
2019-01-14T22:46:05.892Z,101962.71
2019-01-14T22:51:17.624Z,101961.39
2019-01-14T22:56:33.336Z,101956.62
2019-01-14T23:01:51.664Z,101952.66
2019-01-14T23:06:59.305Z,101969.00
2019-01-14T23:12:11.155Z,101968.16
2019-01-14T23:17:23.782Z,101969.45
2019-01-14T23:22:32.966Z,101963.91
2019-01-14T23:27:44.134Z,101957.38
2019-01-14T23:32:59.371Z,101952.54
2019-01-14T23:38:14.924Z,101948.19
2019-01-14T23:43:28.360Z,101948.21
2019-01-14T23:48:42.882Z,101949.07
2019-01-14T23:53:58.371Z,101948.13
2019-01-14T23:59:07.566Z,101944.55
